Thursday, July 18, 2019, 9:46 AM EDT
Back to Local

KPBG, Plattsburgh International Airport

Location: Plattsburgh, NY, United States Lat: 44.65
Local Time: 9:46 AM EDT (13:46 GMT) Lon: -73.467
Time Zone: US/Eastern Elev: 239 ft

Show me the last for .
Show Decoded

2019-07-18 08:53 METAR KPBG 181253Z AUTO 36003KT 10SM CLR 21/13 A3000 RMK AO2 SLP158 T02060133 =
2019-07-18 07:53 METAR KPBG 181153Z AUTO 35007KT 10SM CLR 19/13 A3000 RMK AO2 SLP160 70001
                 T01940133 10194 20167 50012 =
2019-07-18 06:53 METAR KPBG 181053Z AUTO 32004KT 10SM CLR 18/13 A3001 RMK AO2 SLP161 T01780133 =
2019-07-18 05:53 METAR KPBG 180953Z AUTO 33006KT 10SM CLR 17/13 A2999 RMK AO2 SLP157 T01670133 $
                 =
2019-07-18 04:53 METAR KPBG 180853Z AUTO 31005KT 10SM CLR 17/13 A2997 RMK AO2 SLP148 T01720133
                 53002 $ =
2019-07-18 03:53 METAR KPBG 180753Z AUTO 32006KT 10SM CLR 18/14 A2994 RMK AO2 SLP138 T01780139 $
                 =
2019-07-18 02:53 METAR KPBG 180653Z AUTO 29005KT 10SM CLR 18/16 A2995 RMK AO2 SLP142 T01780156 $
                 =
2019-07-18 01:53 METAR KPBG 180553Z AUTO 30004KT 10SM CLR 18/16 A2996 RMK AO2 SLP146 T01830161
                 10256 20183 50010 $ =
2019-07-18 00:53 METAR KPBG 180453Z AUTO 31006KT 10SM CLR 20/17 A2997 RMK AO2 SLP149 T02000172
                 402830189 $ =
2019-07-17 23:53 METAR KPBG 180353Z AUTO 32004KT 10SM CLR 20/18 A2995 RMK AO2 SLP142 T02000178 $
                 =
2019-07-17 22:53 METAR KPBG 180253Z AUTO 00000KT 10SM FEW025 21/18 A2994 RMK AO2 SLP136 T02060183
                 $ =
2019-07-17 21:53 METAR KPBG 180153Z AUTO 33005KT 10SM FEW065 22/18 A2993 RMK AO2 SLP133 T02220183
                 $ =
2019-07-17 20:53 METAR KPBG 180053Z AUTO 36009KT 10SM FEW029 OVC100 24/18 A2991 RMK AO2 SLP126
                 T02440183 =
2019-07-17 19:53 METAR KPBG 172353Z AUTO 31005KT 10SM BKN055 OVC070 26/19 A2988 RMK AO2 SLP118
                 60000 T02560194 10283 20256 53014 =
2019-07-17 18:53 METAR KPBG 172253Z AUTO 00000KT 10SM BKN070 27/21 A2985 RMK AO2 LTG DSNT S
                 SLP108 T02670211 =
2019-07-17 17:53 METAR KPBG 172153Z AUTO VRB05KT 10SM FEW050 FEW100 27/21 A2986 RMK AO2 SLP109
                 T02720211 =
2019-07-17 16:53 METAR KPBG 172053Z AUTO VRB03KT 10SM BKN090 27/21 A2984 RMK AO2 LTG DSNT NW
                 SLP104 60000 T02670211 55002 =
2019-07-17 15:53 METAR KPBG 171953Z AUTO 29005KT 10SM FEW036 SCT070 BKN095 27/21 A2984 RMK AO2
                 RAB20E51 SLP102 P0000 T02720211 =
2019-07-17 14:53 METAR KPBG 171853Z AUTO VRB04KT 10SM FEW070 28/22 A2983 RMK AO2 LTG DSNT E
                 SLP101 T02830217 =
2019-07-17 13:53 METAR KPBG 171753Z AUTO 17008KT 10SM CLR 27/23 A2985 RMK AO2 SLP106 60001
                 T02720233 10272 20222 56007 =
2019-07-17 12:53 METAR KPBG 171653Z AUTO 14008KT 10SM FEW029 FEW043 BKN055 26/23 A2985 RMK AO2
                 SLP106 T02560228 =
2019-07-17 11:53 METAR KPBG 171553Z AUTO 13008KT 10SM FEW022 26/23 A2985 RMK AO2 SLP108 T02610228
                 =
2019-07-17 10:53 METAR KPBG 171453Z AUTO 13005KT 10SM BKN046 24/22 A2987 RMK AO2 SLP112 60001
                 T02440222 50001 =
2019-07-17 09:53 METAR KPBG 171353Z AUTO 13006KT 10SM BKN090 23/22 A2988 RMK AO2 RAE07B33E42
                 SLP116 P0000 T02330217 =

Support USWX by starting your Amazon purchase here.